createdAt,value
2023-01-28T00:01:19.271Z,89.50
2023-01-28T00:03:50.518Z,89.20
2023-01-28T00:06:17.798Z,89.00
2023-01-28T00:08:44.524Z,89.20
2023-01-28T00:11:13.429Z,89.50
2023-01-28T00:13:40.632Z,89.80
2023-01-28T00:16:08.988Z,89.50
2023-01-28T00:18:36.590Z,89.80
2023-01-28T00:21:08.359Z,90.00
2023-01-28T00:23:37.072Z,90.10
2023-01-28T00:26:14.921Z,90.30
2023-01-28T00:28:44.084Z,90.50
2023-01-28T00:31:17.314Z,90.50
2023-01-28T00:33:45.448Z,90.50
2023-01-28T00:36:13.582Z,90.50
2023-01-28T00:38:42.196Z,90.30
2023-01-28T00:41:10.521Z,90.50
2023-01-28T00:43:38.221Z,90.70
2023-01-28T00:46:07.393Z,90.90
2023-01-28T00:48:35.509Z,91.00
2023-01-28T00:51:02.758Z,91.30
2023-01-28T00:53:29.488Z,91.40
2023-01-28T00:55:56.405Z,91.30
2023-01-28T00:58:26.417Z,90.80
2023-01-28T01:00:53.253Z,90.40
2023-01-28T01:03:21.835Z,90.40
2023-01-28T01:05:48.959Z,90.90
2023-01-28T01:08:16.315Z,91.00
2023-01-28T01:10:43.104Z,91.30
2023-01-28T01:13:10.248Z,91.30
2023-01-28T01:15:37.008Z,91.20
2023-01-28T01:18:03.887Z,91.00
2023-01-28T01:20:41.903Z,91.30
2023-01-28T01:23:08.686Z,91.60
2023-01-28T01:25:35.743Z,91.60
2023-01-28T01:28:02.832Z,90.80
2023-01-28T01:30:29.887Z,90.90
2023-01-28T01:32:57.795Z,91.50
2023-01-28T01:35:25.032Z,91.60
2023-01-28T01:37:51.772Z,92.20
2023-01-28T01:40:18.554Z,92.10
2023-01-28T01:42:45.263Z,92.40
2023-01-28T01:45:18.105Z,92.60
2023-01-28T01:48:07.715Z,92.30
2023-01-28T01:50:41.122Z,92.00
2023-01-28T01:53:12.529Z,92.40
2023-01-28T01:55:43.643Z,92.50
2023-01-28T01:58:14.643Z,92.60
2023-01-28T02:00:43.272Z,92.60
2023-01-28T02:03:11.244Z,92.70
2023-01-28T02:05:39.299Z,92.30
2023-01-28T02:08:22.087Z,92.20
2023-01-28T02:10:56.285Z,91.90
2023-01-28T02:13:27.293Z,91.90
2023-01-28T02:15:54.992Z,92.10
2023-01-28T02:18:21.804Z,92.10
2023-01-28T02:21:10.416Z,91.90
2023-01-28T02:23:43.428Z,91.90
2023-01-28T02:26:31.453Z,92.00
2023-01-28T02:29:25.073Z,91.90
2023-01-28T02:32:17.793Z,92.20
2023-01-28T02:34:54.479Z,92.30
2023-01-28T02:37:26.249Z,92.20
2023-01-28T02:39:58.196Z,92.40
2023-01-28T02:42:31.827Z,92.60
2023-01-28T02:44:58.613Z,92.60
2023-01-28T02:47:45.178Z,92.70
2023-01-28T02:50:17.401Z,92.70
2023-01-28T02:53:26.522Z,92.60
2023-01-28T02:56:10.010Z,92.60
2023-01-28T02:59:25.104Z,92.90
2023-01-28T03:02:02.633Z,92.90
2023-01-28T03:04:33.770Z,93.30
2023-01-28T03:07:05.343Z,93.30
2023-01-28T03:09:33.372Z,93.10
2023-01-28T03:12:24.666Z,93.50
2023-01-28T03:15:14.807Z,94.10
2023-01-28T03:18:11.092Z,94.60
2023-01-28T03:21:04.495Z,94.50
2023-01-28T03:24:04.545Z,94.30
2023-01-28T03:26:57.010Z,94.80
2023-01-28T03:29:43.706Z,95.10
2023-01-28T03:32:32.508Z,95.30
2023-01-28T03:35:18.269Z,95.80
2023-01-28T03:37:45.565Z,96.10
2023-01-28T03:40:20.900Z,96.50
2023-01-28T03:42:48.155Z,96.50
2023-01-28T03:45:34.801Z,96.90
2023-01-28T03:48:03.911Z,97.00
2023-01-28T03:50:30.582Z,96.70
2023-01-28T03:53:14.967Z,96.50
2023-01-28T03:55:48.591Z,96.30
2023-01-28T03:58:16.555Z,95.70
2023-01-28T04:00:44.553Z,95.90
2023-01-28T04:03:17.793Z,95.90
2023-01-28T04:06:00.419Z,96.20
2023-01-28T04:08:36.933Z,96.20
2023-01-28T04:11:25.963Z,96.20
2023-01-28T04:13:53.592Z,96.60
2023-01-28T04:16:20.889Z,96.90
2023-01-28T04:18:48.454Z,97.00
2023-01-28T04:21:16.270Z,97.40
2023-01-28T04:23:43.600Z,97.00
2023-01-28T04:26:12.815Z,97.00
2023-01-28T04:28:39.537Z,97.20
2023-01-28T04:31:06.464Z,97.20
2023-01-28T04:33:52.512Z,97.00
2023-01-28T04:36:37.396Z,96.50
2023-01-28T04:39:22.130Z,96.00
2023-01-28T04:42:15.163Z,95.70
2023-01-28T04:45:05.663Z,95.90
2023-01-28T04:47:51.400Z,96.50
2023-01-28T04:50:31.175Z,96.50
2023-01-28T04:53:28.125Z,96.60
2023-01-28T04:55:58.916Z,97.10
2023-01-28T04:58:28.194Z,97.20
2023-01-28T05:01:00.656Z,97.00
2023-01-28T05:03:27.601Z,97.20
2023-01-28T05:05:54.820Z,97.10
2023-01-28T05:08:37.437Z,97.30
2023-01-28T05:11:04.498Z,97.30
2023-01-28T05:13:31.244Z,97.50
2023-01-28T05:15:58.809Z,97.60
2023-01-28T05:18:25.600Z,97.60
2023-01-28T05:21:09.454Z,98.00
2023-01-28T05:23:38.343Z,97.70
2023-01-28T05:26:05.404Z,97.80
2023-01-28T05:28:33.980Z,98.00
2023-01-28T05:31:07.490Z,97.70
2023-01-28T05:33:34.484Z,97.50
2023-01-28T05:36:03.355Z,97.90
2023-01-28T05:38:30.612Z,97.50
2023-01-28T05:40:57.397Z,97.20
2023-01-28T05:43:26.876Z,97.10
2023-01-28T05:46:09.308Z,97.60
2023-01-28T05:49:00.507Z,97.30
2023-01-28T05:51:45.991Z,97.80
2023-01-28T05:54:15.756Z,98.10
2023-01-28T05:56:42.973Z,98.20
2023-01-28T05:59:11.622Z,97.90
2023-01-28T06:01:41.484Z,98.20
2023-01-28T06:04:08.313Z,98.20
2023-01-28T06:06:35.409Z,97.90
2023-01-28T06:09:04.883Z,98.30
2023-01-28T06:11:31.738Z,98.30
2023-01-28T06:14:02.724Z,97.80
2023-01-28T06:16:41.917Z,98.00
2023-01-28T06:19:37.788Z,98.10
2023-01-28T06:22:05.730Z,97.60
2023-01-28T06:24:32.981Z,98.00
2023-01-28T06:26:59.668Z,97.80
2023-01-28T06:29:26.401Z,97.70
2023-01-28T06:31:53.303Z,97.70
2023-01-28T06:34:19.982Z,97.30
2023-01-28T06:36:46.682Z,97.40
2023-01-28T06:39:13.354Z,97.80
2023-01-28T06:41:40.053Z,97.70
2023-01-28T06:44:06.829Z,98.30
2023-01-28T06:46:33.600Z,98.10
2023-01-28T06:49:00.377Z,97.90
2023-01-28T06:51:27.026Z,97.40
2023-01-28T06:53:53.770Z,97.50
2023-01-28T06:56:20.525Z,97.50
2023-01-28T06:58:47.230Z,97.60
2023-01-28T07:01:14.073Z,97.80
2023-01-28T07:03:40.828Z,98.20
2023-01-28T07:06:07.742Z,97.90
2023-01-28T07:08:34.662Z,97.30
2023-01-28T07:11:01.355Z,97.50
2023-01-28T07:13:28.085Z,97.70
2023-01-28T07:15:54.786Z,97.40
2023-01-28T07:18:21.592Z,97.20
2023-01-28T07:20:48.279Z,97.10
2023-01-28T07:23:14.985Z,96.80
2023-01-28T07:25:41.954Z,96.50
2023-01-28T07:28:08.811Z,96.70
2023-01-28T07:30:35.507Z,96.80
2023-01-28T07:33:02.233Z,97.20
2023-01-28T07:35:29.717Z,97.00
2023-01-28T07:37:58.735Z,97.40
2023-01-28T07:40:26.726Z,97.40
2023-01-28T07:42:55.355Z,97.60
2023-01-28T07:45:23.966Z,97.20
2023-01-28T07:47:54.857Z,96.90
2023-01-28T07:50:21.785Z,96.60
2023-01-28T07:52:48.637Z,96.80
2023-01-28T07:55:16.747Z,96.80
2023-01-28T07:57:55.122Z,96.50
2023-01-28T08:00:24.496Z,96.50
2023-01-28T08:02:59.086Z,96.50
2023-01-28T08:05:30.147Z,96.50
2023-01-28T08:07:57.836Z,96.50
2023-01-28T08:10:24.939Z,96.30
2023-01-28T08:12:55.912Z,96.20
2023-01-28T08:15:23.443Z,96.40
2023-01-28T08:17:50.554Z,96.30
2023-01-28T08:20:17.878Z,96.60
2023-01-28T08:22:45.207Z,97.00
2023-01-28T08:25:12.415Z,97.30
2023-01-28T08:27:39.415Z,97.00
2023-01-28T08:30:07.182Z,96.90
2023-01-28T08:32:33.967Z,96.70
2023-01-28T08:35:01.461Z,96.60
2023-01-28T08:37:30.825Z,96.80
2023-01-28T08:40:01.025Z,97.00
2023-01-28T08:42:27.894Z,96.90
2023-01-28T08:44:54.947Z,96.70
2023-01-28T08:47:21.663Z,96.50
2023-01-28T08:49:51.454Z,96.20
2023-01-28T08:52:18.491Z,96.30
2023-01-28T08:54:45.276Z,95.90
2023-01-28T08:57:11.967Z,96.70
2023-01-28T08:59:46.031Z,96.40
2023-01-28T09:02:30.239Z,96.30
2023-01-28T09:04:57.900Z,96.60
2023-01-28T09:07:24.750Z,96.50
2023-01-28T09:09:51.442Z,97.00
2023-01-28T09:12:18.208Z,96.20
2023-01-28T09:14:44.992Z,95.90
2023-01-28T09:17:11.672Z,96.30
2023-01-28T09:19:38.592Z,96.30
2023-01-28T09:22:05.499Z,96.10
2023-01-28T09:24:32.236Z,95.60
2023-01-28T09:26:58.980Z,95.80
2023-01-28T09:29:25.660Z,95.90
2023-01-28T09:31:52.355Z,96.10
2023-01-28T09:34:18.993Z,96.40
2023-01-28T09:36:45.751Z,96.50
2023-01-28T09:39:12.510Z,96.50
2023-01-28T09:42:16.637Z,97.00
2023-01-28T09:45:11.676Z,96.90
2023-01-28T09:47:59.767Z,96.60
2023-01-28T09:50:36.323Z,96.60
2023-01-28T09:53:21.761Z,96.60
2023-01-28T09:56:30.112Z,96.60
2023-01-28T09:59:01.266Z,96.90
2023-01-28T10:01:36.622Z,97.30
2023-01-28T10:04:09.503Z,97.50
2023-01-28T10:06:42.519Z,97.50
2023-01-28T10:09:09.276Z,97.60
2023-01-28T10:12:00.102Z,97.40
2023-01-28T10:14:41.667Z,97.10
2023-01-28T10:17:11.687Z,96.60
2023-01-28T10:19:48.536Z,96.70
2023-01-28T10:22:25.978Z,95.80
2023-01-28T10:25:07.073Z,96.10
2023-01-28T10:27:35.953Z,96.00
2023-01-28T10:30:22.571Z,95.80
2023-01-28T10:33:17.789Z,96.20
2023-01-28T10:35:44.559Z,96.50
2023-01-28T10:38:17.179Z,96.20
2023-01-28T10:40:47.983Z,95.60
2023-01-28T10:43:22.880Z,95.80
2023-01-28T10:46:13.148Z,95.80
2023-01-28T10:48:45.876Z,95.70
2023-01-28T10:51:12.602Z,96.00
2023-01-28T10:53:45.616Z,96.10
2023-01-28T10:56:17.588Z,95.70
2023-01-28T10:59:20.364Z,95.90
2023-01-28T11:01:54.498Z,96.10
2023-01-28T11:04:35.709Z,96.40
2023-01-28T11:07:18.011Z,95.80
2023-01-28T11:09:50.678Z,95.80
2023-01-28T11:12:21.857Z,95.40
2023-01-28T11:14:57.167Z,94.90
2023-01-28T11:17:27.055Z,94.70
2023-01-28T11:19:56.918Z,94.30
2023-01-28T11:22:34.446Z,94.90
2023-01-28T11:25:04.785Z,95.30
2023-01-28T11:27:35.497Z,94.90
2023-01-28T11:30:04.591Z,93.70
2023-01-28T11:32:31.655Z,93.40
2023-01-28T11:35:00.298Z,93.50
2023-01-28T11:37:28.748Z,92.90
2023-01-28T11:40:23.560Z,92.60
2023-01-28T11:42:52.345Z,93.20
2023-01-28T11:45:24.466Z,93.30
2023-01-28T11:48:18.333Z,93.30
2023-01-28T11:50:54.036Z,94.20
2023-01-28T11:53:50.085Z,93.30
2023-01-28T11:56:43.987Z,93.10
2023-01-28T11:59:25.466Z,92.30
2023-01-28T12:02:31.905Z,93.00
2023-01-28T12:05:41.861Z,92.90
2023-01-28T12:08:34.886Z,93.30
2023-01-28T12:11:55.122Z,93.60
2023-01-28T12:14:25.032Z,92.70
2023-01-28T12:17:19.337Z,93.00
2023-01-28T12:19:51.501Z,93.70
2023-01-28T12:22:31.373Z,93.50
2023-01-28T12:25:26.020Z,93.30
2023-01-28T12:28:34.651Z,93.40
2023-01-28T12:31:07.493Z,92.90
2023-01-28T12:34:02.704Z,93.30
2023-01-28T12:36:48.720Z,92.70
2023-01-28T12:39:33.226Z,93.00
2023-01-28T12:42:13.157Z,92.50
2023-01-28T12:44:51.970Z,91.50
2023-01-28T12:47:39.694Z,92.10
2023-01-28T12:50:17.250Z,91.30
2023-01-28T12:52:50.452Z,90.60
2023-01-28T12:55:33.942Z,91.30
2023-01-28T12:58:05.818Z,91.60
2023-01-28T13:00:34.333Z,90.80
2023-01-28T13:03:24.963Z,90.50
2023-01-28T13:06:02.994Z,90.70
2023-01-28T13:08:30.503Z,91.20
2023-01-28T13:10:59.875Z,90.40
2023-01-28T13:13:35.837Z,90.20
2023-01-28T13:16:04.074Z,90.20
2023-01-28T13:18:44.205Z,89.90
2023-01-28T13:21:34.656Z,90.10
2023-01-28T13:24:09.727Z,90.40
2023-01-28T13:26:55.633Z,90.50
2023-01-28T13:29:25.748Z,90.90
2023-01-28T13:31:58.901Z,90.20
2023-01-28T13:34:38.216Z,90.20
2023-01-28T13:37:26.938Z,90.70
2023-01-28T13:40:01.799Z,90.70
2023-01-28T13:42:30.340Z,90.70
2023-01-28T13:45:19.751Z,90.70
2023-01-28T13:47:53.801Z,90.60
2023-01-28T13:50:24.795Z,90.60
2023-01-28T13:53:21.442Z,90.70
2023-01-28T13:55:50.630Z,90.00
2023-01-28T13:58:51.795Z,90.10
2023-01-28T14:01:47.373Z,90.10
2023-01-28T14:04:48.841Z,90.60
2023-01-28T14:07:19.277Z,90.00
2023-01-28T14:10:12.243Z,90.50
2023-01-28T14:13:06.031Z,90.80
2023-01-28T14:15:51.912Z,90.50
2023-01-28T14:18:26.379Z,90.00
2023-01-28T14:20:56.242Z,89.80
2023-01-28T14:23:31.091Z,89.80
2023-01-28T14:26:19.042Z,90.00
2023-01-28T14:29:20.281Z,90.30
2023-01-28T14:31:47.637Z,90.40
2023-01-28T14:34:22.325Z,90.70
2023-01-28T14:36:50.057Z,90.60
2023-01-28T14:39:19.802Z,90.30
2023-01-28T14:41:49.403Z,90.30
2023-01-28T14:44:40.482Z,90.60
2023-01-28T14:47:18.855Z,90.40
2023-01-28T14:50:01.937Z,89.70
2023-01-28T14:52:46.986Z,89.70
2023-01-28T14:55:43.769Z,90.00
2023-01-28T14:58:24.559Z,90.30
2023-01-28T15:00:56.706Z,90.20
2023-01-28T15:03:25.136Z,90.10
2023-01-28T15:06:03.233Z,89.70
2023-01-28T15:08:32.150Z,89.70
2023-01-28T15:11:01.253Z,89.90
2023-01-28T15:13:36.198Z,90.60
2023-01-28T15:16:03.207Z,90.30
2023-01-28T15:18:40.453Z,90.00
2023-01-28T15:21:07.278Z,89.90
2023-01-28T15:23:39.610Z,89.30
2023-01-28T15:26:07.446Z,89.20
2023-01-28T15:28:38.267Z,89.20
2023-01-28T15:31:05.761Z,88.90
2023-01-28T15:33:32.580Z,89.20
2023-01-28T15:36:06.334Z,89.10
2023-01-28T15:38:33.138Z,89.20
2023-01-28T15:41:03.623Z,89.00
2023-01-28T15:43:38.341Z,89.00
2023-01-28T15:46:12.378Z,89.20
2023-01-28T15:48:44.310Z,89.30
2023-01-28T15:51:24.461Z,89.10
2023-01-28T15:53:56.584Z,88.90
2023-01-28T15:56:29.015Z,89.40
2023-01-28T15:59:07.977Z,89.40
2023-01-28T16:01:34.666Z,89.80
2023-01-28T16:04:22.364Z,89.90
2023-01-28T16:06:49.689Z,89.60
2023-01-28T16:09:30.884Z,89.40
2023-01-28T16:12:07.547Z,89.70
2023-01-28T16:14:43.520Z,90.00
2023-01-28T16:17:15.828Z,89.60
2023-01-28T16:19:47.122Z,89.50
2023-01-28T16:22:33.571Z,89.20
2023-01-28T16:25:00.312Z,89.20
2023-01-28T16:27:31.348Z,89.40
2023-01-28T16:29:58.679Z,89.70
2023-01-28T16:32:39.535Z,89.70
2023-01-28T16:35:20.327Z,89.40
2023-01-28T16:37:49.081Z,89.10
2023-01-28T16:40:19.033Z,89.30
2023-01-28T16:42:48.700Z,89.10
2023-01-28T16:45:24.692Z,88.80
2023-01-28T16:47:52.624Z,88.80
2023-01-28T16:50:21.954Z,88.60
2023-01-28T16:52:51.724Z,88.50
2023-01-28T16:55:21.544Z,88.90
2023-01-28T16:57:52.641Z,89.10
2023-01-28T17:00:23.346Z,89.00
2023-01-28T17:02:51.838Z,88.80
2023-01-28T17:05:19.904Z,88.90
2023-01-28T17:07:50.442Z,88.70
2023-01-28T17:10:17.942Z,88.40
2023-01-28T17:12:46.846Z,88.50
2023-01-28T17:15:13.982Z,88.60
2023-01-28T17:17:40.988Z,88.20
2023-01-28T17:20:08.401Z,88.30
2023-01-28T17:22:35.139Z,88.10
2023-01-28T17:25:04.831Z,88.80
2023-01-28T17:27:31.491Z,89.00
2023-01-28T17:29:58.192Z,88.30
2023-01-28T17:32:25.102Z,87.70
2023-01-28T17:34:51.944Z,87.60
2023-01-28T17:37:18.645Z,87.60
2023-01-28T17:39:45.347Z,87.70
2023-01-28T17:42:12.509Z,87.50
2023-01-28T17:44:39.213Z,87.00
2023-01-28T17:47:06.006Z,86.50
2023-01-28T17:49:33.129Z,86.00
2023-01-28T17:51:59.993Z,86.80
2023-01-28T17:54:26.887Z,86.80
2023-01-28T17:56:53.935Z,86.10
2023-01-28T17:59:21.636Z,86.30
2023-01-28T18:01:49.932Z,86.30
2023-01-28T18:04:16.685Z,85.90
2023-01-28T18:06:43.465Z,86.30
2023-01-28T18:09:10.176Z,86.20
2023-01-28T18:11:36.996Z,85.60
2023-01-28T18:14:03.704Z,85.20
2023-01-28T18:16:30.480Z,85.40
2023-01-28T18:18:57.192Z,85.40
2023-01-28T18:21:26.806Z,85.00
2023-01-28T18:23:53.540Z,84.70
2023-01-28T18:26:20.339Z,85.50
2023-01-28T18:28:48.268Z,85.50
2023-01-28T18:31:15.588Z,85.10
2023-01-28T18:33:42.377Z,85.00
2023-01-28T18:36:09.873Z,85.30
2023-01-28T18:38:36.645Z,85.00
2023-01-28T18:41:03.405Z,84.80
2023-01-28T18:43:32.557Z,85.20
2023-01-28T18:46:00.306Z,85.40
2023-01-28T18:48:27.339Z,85.30
2023-01-28T18:50:55.747Z,84.80
2023-01-28T18:53:22.779Z,85.00
2023-01-28T18:55:49.552Z,84.80
2023-01-28T18:58:16.654Z,84.60
2023-01-28T19:00:43.446Z,85.10
2023-01-28T19:03:10.144Z,85.00
2023-01-28T19:05:38.402Z,85.20
2023-01-28T19:08:06.980Z,85.30
2023-01-28T19:10:34.077Z,85.00
2023-01-28T19:13:00.947Z,85.30
2023-01-28T19:15:27.795Z,85.20
2023-01-28T19:17:54.681Z,85.20
2023-01-28T19:20:21.412Z,84.80
2023-01-28T19:22:48.261Z,84.90
2023-01-28T19:25:16.442Z,84.40
2023-01-28T19:27:43.426Z,84.40
2023-01-28T19:30:10.780Z,84.80
2023-01-28T19:32:37.828Z,84.70
2023-01-28T19:35:04.919Z,84.80
2023-01-28T19:37:33.523Z,85.00
2023-01-28T19:40:00.206Z,84.80
2023-01-28T19:42:26.964Z,84.90
2023-01-28T19:44:53.640Z,84.10
2023-01-28T19:47:20.309Z,84.00
2023-01-28T19:49:46.970Z,83.60
2023-01-28T19:52:13.733Z,83.90
2023-01-28T19:54:40.416Z,84.00
2023-01-28T19:57:07.136Z,84.00
2023-01-28T19:59:33.829Z,83.60
2023-01-28T20:02:00.683Z,84.00
2023-01-28T20:04:27.382Z,83.80
2023-01-28T20:06:54.058Z,84.20
2023-01-28T20:09:20.904Z,84.00
2023-01-28T20:11:47.760Z,83.90
2023-01-28T20:14:18.489Z,84.40
2023-01-28T20:16:45.164Z,83.90
2023-01-28T20:19:19.248Z,83.90
2023-01-28T20:21:46.974Z,84.30
2023-01-28T20:24:14.959Z,84.40
2023-01-28T20:26:43.501Z,84.50
2023-01-28T20:29:17.544Z,84.30
2023-01-28T20:31:44.617Z,84.00
2023-01-28T20:34:16.269Z,84.00
2023-01-28T20:36:43.964Z,84.30
2023-01-28T20:39:11.857Z,84.40
2023-01-28T20:41:38.551Z,84.20
2023-01-28T20:44:08.246Z,84.20
2023-01-28T20:46:36.579Z,84.20
2023-01-28T20:49:06.051Z,83.80
2023-01-28T20:51:35.832Z,83.60
2023-01-28T20:54:03.867Z,84.00
2023-01-28T20:56:31.207Z,84.20
2023-01-28T20:59:00.724Z,84.60
2023-01-28T21:01:30.531Z,84.90
2023-01-28T21:03:57.394Z,85.10
2023-01-28T21:06:25.356Z,84.90
2023-01-28T21:08:56.913Z,84.60
2023-01-28T21:11:25.198Z,84.80
2023-01-28T21:13:52.190Z,84.60
2023-01-28T21:16:20.546Z,84.30
2023-01-28T21:18:52.981Z,84.10
2023-01-28T21:21:31.217Z,83.90
2023-01-28T21:24:01.532Z,84.30
2023-01-28T21:26:31.340Z,84.20
2023-01-28T21:28:58.239Z,84.80
2023-01-28T21:31:27.032Z,84.10
2023-01-28T21:34:01.874Z,84.30
2023-01-28T21:36:33.936Z,83.90
2023-01-28T21:39:01.632Z,83.90
2023-01-28T21:41:29.141Z,83.60
2023-01-28T21:43:57.726Z,83.60
2023-01-28T21:46:38.823Z,83.70
2023-01-28T21:49:05.621Z,83.70
2023-01-28T21:51:35.506Z,84.10
2023-01-28T21:54:03.816Z,83.70
2023-01-28T21:56:30.560Z,83.70
2023-01-28T21:59:16.264Z,83.30
2023-01-28T22:01:44.420Z,83.50
2023-01-28T22:04:11.789Z,83.70
2023-01-28T22:06:38.495Z,84.00
2023-01-28T22:09:05.171Z,83.70
2023-01-28T22:11:32.427Z,83.30
2023-01-28T22:13:59.245Z,83.20
2023-01-28T22:16:26.010Z,83.30
2023-01-28T22:18:52.751Z,83.30
2023-01-28T22:21:19.451Z,83.70
2023-01-28T22:23:46.162Z,83.60
2023-01-28T22:26:13.036Z,83.00
2023-01-28T22:28:39.824Z,83.90
2023-01-28T22:31:09.679Z,83.60
2023-01-28T22:33:36.876Z,83.50
2023-01-28T22:36:08.776Z,83.80
2023-01-28T22:38:39.296Z,83.70
2023-01-28T22:41:08.711Z,83.60
2023-01-28T22:43:35.490Z,83.80
2023-01-28T22:46:03.505Z,83.60
2023-01-28T22:48:30.983Z,83.30
2023-01-28T22:51:04.035Z,83.10
2023-01-28T22:53:31.215Z,83.10
2023-01-28T22:55:58.024Z,82.80
2023-01-28T22:58:24.724Z,82.70
2023-01-28T23:00:51.450Z,82.70
2023-01-28T23:03:18.535Z,83.10
2023-01-28T23:05:45.200Z,83.10
2023-01-28T23:08:12.412Z,83.30
2023-01-28T23:10:41.670Z,83.30
2023-01-28T23:13:08.778Z,83.70
2023-01-28T23:15:54.102Z,83.30
2023-01-28T23:18:48.633Z,83.40
2023-01-28T23:21:39.688Z,83.40
2023-01-28T23:24:21.413Z,83.50
2023-01-28T23:26:59.563Z,83.50
2023-01-28T23:29:28.345Z,83.30
2023-01-28T23:32:04.527Z,82.90
2023-01-28T23:34:40.064Z,83.10
2023-01-28T23:37:09.394Z,83.00
2023-01-28T23:39:36.410Z,83.30
2023-01-28T23:42:18.221Z,83.60
2023-01-28T23:44:45.035Z,83.50
2023-01-28T23:47:12.279Z,83.60
2023-01-28T23:49:39.604Z,83.80
2023-01-28T23:52:07.190Z,84.60
2023-01-28T23:54:34.581Z,84.50
2023-01-28T23:57:01.823Z,85.10
2023-01-28T23:59:28.472Z,85.30
